AirNav   Phillips 66 Aviation Fuel
 
 346 users online  

NJ77 Warren County Public Safety Department Heliport
Franklin, New Jersey, USA


FAA INFORMATION EFFECTIVE 01 FEBRUARY 2018

Location

FAA Identifier: NJ77
Lat/Long: 40-44-27.5000N / 075-01-17.4000W
40-44.458333N / 075-01.290000W
40.7409722 / -75.0215000
(estimated)
Elevation: 411 ft. / 125 m (estimated)
From city: 2 miles W of FRANKLIN, NJ
Time zone: UTC -5 (UTC -4 during Daylight Saving Time)
Zip code: 07882

Heliport Operations

Heliport use: Private use. Permission required prior to landing
Activation date: 10/2008
Control tower: no
ARTCC: NEW YORK CENTER
FSS: MILLVILLE FLIGHT SERVICE STATION
Attendance: CONTINUOUS
Wind indicator: yes
Segmented circle: no

Heliport Communications

WX ASOS at SMQ (17 nm SE): 120.6 (908-722-2139)
WX ASOS at ABE (20 nm W): PHONE 610-266-3579

Nearby radio navigation aids

VOR radial/distance  VOR name  Freq  Var
BWZr260/9.7BROADWAY VOR/DME114.2011W
SBJr317/15.9SOLBERG VOR/DME112.9010W
STWr215/16.8STILLWATER VOR/DME109.6011W
FJCr098/19.7ALLENTOWN VORTAC117.5010W
SAXr239/29.4SPARTA VORTAC115.7011W
ARDr360/29.7YARDLEY VOR/DME108.2010W
ETXr081/31.6EAST TEXAS VOR/DME110.2009W
PNEr009/(39.5)NORTH PHILADELPHIA VOR112.0010W
PTWr047/39.7POTTSTOWN VORTAC116.5009W

 
NDB name  Hdg/Dist  Freq  Var  ID
CHATHAM283/26.925413WCAT -.-. .- -
AMBLER030/38.827512WING .. -. --.

Heliport Services

Runway Information

Helipad H1

Dimensions: 100 x 100 ft. / 30 x 30 m
Surface: turf
Traffic pattern: leftleft

Heliport Ownership and Management from official FAA records

Ownership: Privately-owned
Owner: WARREN COUNTY
1024 ROUTE 57
WASHINGTON, NJ 07882
Phone 908-835-2051
Manager: FRANK WHEATLEY
1024 ROUTE 57
WASHINGTON, NJ 07882
Phone 908-835-2051

Additional Remarks

A52-H1 H1 HAS 30 FT TREES 50 FT S AND 185 FT TWR 400 SSE OF PAD.

Instrument Procedures

There are no published instrument procedures at NJ77.

Some nearby airports with instrument procedures:

N85 - Alexandria Airport (9 nm S)
N43 - Braden Airpark (10 nm W)
N40 - Sky Manor Airport (11 nm S)
1N7 - Blairstown Airport (14 nm N)
N51 - Solberg-Hunterdon Airport (16 nm SE)
KSMQ - Somerset Airport (17 nm SE)
N53 - Stroudsburg-Pocono Airport (19 nm N)
KABE - Lehigh Valley International Airport (20 nm W)
 
Loc | Ops | Rwys | IFR | FBO | Links
Com | Nav | Svcs | Stats | Notes

AirNav Hotels Sweepstakes
 
Aerial photo
No photo
 
Sectional chart

 
Airport distance calculator
Flying to Warren County Public Safety Department Heliport? Find the distance to fly.

From to NJ77

Sunrise and sunset
Times for 24-Feb-2018
 Local
(UTC-5)
 Zulu
(UTC)
Morning civil twilight06:1511:15
Sunrise06:4311:43
Sunset17:4422:44
Evening civil twilight18:1223:12

Current date and time
Zulu (UTC)  24-Feb-2018 10:28:18
Local (UTC-5)  24-Feb-2018 05:28:18
 
METAR
KSMQ 
18nm SE 
ASOS 120.60 908-722-2139
241010Z AUTO 00000KT 6SM BR OVC014 06/05 A3015 RMK AO2 T00560050
KABE 
20nm W 
241004Z 29003KT 2 1/2SM BR BKN004 OVC011 06/04 A3017 RMK AO2 SFC VIS 4 T00560039
K12N 
21nm NE 
240954Z AUTO VRB03KT 04/04 A3015 RMK AO1 SLP218 T00440044
KXLL 
24nm SW 
241015Z AUTO 21005KT 2 1/2SM BR OVC002 06/06 A3018 RMK AO2
KCKZ 
24nm SW 
241015Z AUTO 26003KT 1 1/2SM BR OVC003 05/05 A3018 RMK AO2
KUKT 
25nm SW 
241015Z AUTO 00000KT 2SM BR BKN001 OVC005 05/05 A3017 RMK A01
KDYL 
25nm S 
240954Z AUTO 24004KT 6SM BR OVC002 06/06 A3016 RMK AO2 SLP219 T00560056
KMMU 
28nm E 
241015Z AUTO 00000KT 7SM OVC010 05/05 A3016 RMK AO2
KMPO 
29nm NW 
241022Z AUTO 28007KT 3SM BR OVC003 04/04 A3012 RMK AO2 T00390039
KTTN 
29nm S 
ASOS 133.70 609-538-8690
240953Z AUTO 26003KT 3SM BR OVC003 07/06 A3017 RMK AO2 SLP211 T00670061
TAF
KABE 
20nm W 
240520Z 2406/2506 VRB03KT 1SM BR OVC002 FM241100 VRB03KT 4SM BR SCT005 OVC025 FM241400 35004KT P6SM OVC035 FM241700 01004KT P6SM -SHRA OVC035 FM242100 04004KT P6SM -RA OVC025 FM250300 07005KT 6SM -DZ BR OVC015
NOTAMs
Click for the latest NOTAMs
NOTAMs are issued by the DoD/FAA and will open in a separate window not controlled by AirNav.

 

 
 

Would you like to see your business listed on this page?

 If your business provides an interesting product or service to pilots, flight crews, aircraft, or users of the Warren County Public Safety Department Heliport, you should consider listing it here.  To start the listing process, click on the button below
 
Add a business
 

Other Pages about Warren County Public Safety Department Heliport

Update a link
 
Copyright © AirNav, LLC. All rights reserved. Privacy Policy  Contact